CYAZ/YAZ METAR and TAF weather

Enter ICAO airport designator
Station Type Date Time Source
CYAZ METAR 2018/01/22 01:00 UTC NOAA

CYAZ 220100Z 24009G15KT 210V280 12SM VCSH FEW020 SCT028CB BKN180 06/04 A2972 RMK CU1CB3AC1 LAST STFD OBS/NEXT 221500UTC SLP067


Station Type Date Time Source
CYAZ Decoded METAR 2018/01/22 01:00 UTC NOAA

Tofino Airport, Canada (CYAZ) 49-05N 125-46W
Jan 21, 2018 - 08:00 PM EST / 2018.01.22 0100 UTC
Wind: from the WSW (240 degrees) at 10 MPH (9 KT) gusting to 17 MPH (15 KT) (direction variable):0
Visibility: 12 mile(s):0
Sky conditions: mostly cloudy
Weather: showers in the vicinity; Cumulonimbus clouds observed
Temperature: 42 F (6 C)
Dew Point: 39 F (4 C)
Relative Humidity: 86%
Pressure (altimeter): 29.72 in. Hg (1006 hPa)
ob: CYAZ 220100Z 24009G15KT 210V280 12SM VCSH FEW020 SCT028CB BKN180 06/04 A2972 RMK CU1CB3AC1 LAST STFD OBS/NEXT 221500UTC SLP067
cycle: 1

Station Type Date Time Source
CYAZ TAF 2018/01/21 18:00 UTC NOAA

TAF CYAZ 211738Z 2118/2201 22010KT 5SM -SHRA BR BKN020 OVC060
TEMPO 2118/2201 P6SM NSW SCT015 BKN080
RMK NXT FCST WILL BE ISSUED AT 221645Z


Example: see airport list